Пахомово

Карта отелей и гостиниц, располагающихся рядом с аэропортом Пахомово :

Пахомово Тульская область 54° 37' 32.4588" N, 37° 34' 47.7588" E
Код аэродрома ИКАО
UUDP
Код аэродрома RU
УУДП
Координаты
N54.62568° E037.57993°
Превышение над уровнем моря
245
Основная полоса
04/22
Курс магнитный
036,5/216,5
Длина основной ВПП
610
Ширина основной ВПП
40
Покрытие основной ВПП
Нетвёрдое (грунт)
Освещение ВПП
Нет
Тип: 
Аэродром
Класс аэродрома: 
Принадлежность: 
АОН
Статус: 
Действующий
Сайт: 
http://www.2mak.ru
E-mail аэродрома: 
askazarin@2mak.ru
Страна: 
Россия
Регион: 
Тульская область
Город: 
Дополнительная информация: 
Оператор: АУЦ ГА государственное предприятие "2-ой Московский аэроклуб". Специализация: полёты с переменным профилем на планёрах и самолётах-буксировщиках в радиусе 10 км от КТА. Также выполняются полёты на пилотаж в спец. зонах. Над КТА производится десантирование парашютистов. Вход в круг строго по согласованию с РП, т.к. возможна смена рабочего старта, который разбивается в любом направлении в зависимости от ветра. Безусловный приоритет имеют безмоторные ВС (планёры). При подходе усиливать осмотрительность и радиоосмотрительность.

Найти трансфер

С помощью этой формы Вы можете найти трансфер из аэропорта Пахомово в город, аэропорт или вокзал:

Карта места

Javascript is required to view this map.

Погода в аэропортах:

Авиационная погода в Якутске

Регион: 
Погода METAR: 
UEEE 050800Z 01003MPS 5000 FU NSC 26/06 Q1003 R23L/09//70 NOSIG RMK QFE743
Время наблюдения
2021-08-05T08:00:00Z
Температура C
26.0
Точка росы
6.0
Направление ветра
10
Скорость ветра (узлы)
6
Метео видимость
3.11
Явления погоды
FU
Условия полета
MVFR
Аэропорт подробнее: 

Авиационная погода в Братске

Регион: 
Погода METAR: 
UIBB 050800Z 31002MPS 1800 R30/1800N FU BKN027CB 21/14 Q1004 R30/CLRD60 NOSIG RMK QFE711/0948
Время наблюдения
2021-08-05T08:00:00Z
Температура C
21.0
Точка росы
14.0
Направление ветра
310
Скорость ветра (узлы)
4
Метео видимость
1.12
Явления погоды
FU
Условия полета
IFR
Аэропорт подробнее: 

Авиационная погода в Брянске

Регион: 
Погода METAR: 
UUBP 050800Z 15002MPS 9999 -SHRA BKN035CB 16/16 Q1015 R16/290155 NOSIG RMK QFE743/0991
Время наблюдения
2021-08-05T08:00:00Z
Температура C
16.0
Точка росы
16.0
Направление ветра
150
Скорость ветра (узлы)
4
Метео видимость
6.21
Явления погоды
-SHRA
Условия полета
VFR
Аэропорт подробнее: 

Авиационная погода в Сургуте

Регион: 
Погода METAR: 
USRR 050900Z 36002MPS 320V040 2100 R07/1900N BR BKN022 19/18 Q1012 R07/CLRD60 TEMPO 1000 BR RMK OBST OBSC QFE754
Время наблюдения
2021-08-05T09:00:00Z
Температура C
19.0
Точка росы
18.0
Направление ветра
360
Скорость ветра (узлы)
4
Метео видимость
1.3
Явления погоды
BR
Условия полета
IFR
Аэропорт подробнее: